Main page
METAR-TAF:

METAR-TAF

Airports :

Berlin, Germany

Berlin Tegel Airport

latitude: 52-34N, longitude: 013-19E, elevation: 37 m

Current weather observation

The report was made 16 minutes ago, at 20:20 UTC
Wind 5 kt from the West
Temperature 20°C
Humidity 68%
Pressure 1013 hPa
Visibility 10 km or more
Few clouds at a height of 4400 ft
Scattered clouds at a height of 8000 ft
Broken clouds at a height of 10000 ft

METAR: EDDT 232020Z 26005KT 9999 FEW044 SCT080 BKN100 20/14 Q1013 NOSIG

Time: 22:36 (20:36 UTC)

Forecast

The report was made 3 hours and 36 minutes ago, at 17:00 UTC
Forecast valid from 23 at 18 UTC to 24 at 18 UTC
Wind 7 kt from the West
Visibility 10 km or more
Scattered clouds at a height of 3500 ft
Becoming
from 23 at 20 UTC to 23 at 22 UTC
Wind 4 kt from the Southwest
Becoming
from 24 at 07 UTC to 24 at 09 UTC
Wind 9 kt from the West/Southwest

TAF: EDDT 231700Z 2318/2418 28007KT 9999 SCT035 BECMG 2320/2322 22004KT BECMG 2407/2409 25009KT

Weather observations and forecasts of more than 4000 airports (METAR and TAF reports).

The available stations are represented by yellow and red dots on the map.

Hover mouse over dot to see the name of the station.

Then click to see weather observations and forecasts.

To change the map : click on the green buttons with a black cross to zoom in, on the green button with a dash to zoom out, or on the green arrows for adjacent maps.


METAR-TAF: